Time;durP1;ratioP1;P1;durP2;ratioP2;P2;SDS_P1;SDS_P2;PMS_P1;PMS_P2;Temp;Humidity;BMP_temperature;BMP_pressure;BME280_temperature;BME280_humidity;BME280_pressure;Samples;Min_cycle;Max_cycle;Signal;HPM_P1;HPM_P2
2023/08/02 00:02:12;;;;;;;7.60;1.88;;;16.00;99.90;;;;;;5079097;28;20016;-76
2023/08/02 00:04:37;;;;;;;6.60;1.77;;;16.00;99.90;;;;;;5100977;28;20314;-76
2023/08/02 00:07:04;;;;;;;8.50;1.80;;;16.00;99.90;;;;;;5086515;28;20309;-76
2023/08/02 00:09:30;;;;;;;4.00;1.50;;;16.00;99.90;;;;;;5120221;28;20030;-76
2023/08/02 00:11:56;;;;;;;6.10;1.60;;;16.00;99.90;;;;;;5068555;28;20023;-76
2023/08/02 00:14:22;;;;;;;9.77;2.25;;;16.00;99.90;;;;;;5085621;28;20020;-76
2023/08/02 00:16:48;;;;;;;5.78;1.63;;;16.00;99.90;;;;;;5069629;28;20047;-76
2023/08/02 00:19:14;;;;;;;6.25;1.95;;;16.00;99.90;;;;;;5069546;28;20023;-76
2023/08/02 00:21:40;;;;;;;7.00;1.80;;;16.00;99.90;;;;;;5107553;28;20095;-76
2023/08/02 00:24:05;;;;;;;5.55;1.75;;;16.00;99.90;;;;;;5051451;28;20048;-76
2023/08/02 00:26:31;;;;;;;5.03;1.70;;;16.00;99.90;;;;;;5068939;28;20033;-76
2023/08/02 00:28:57;;;;;;;4.93;1.70;;;16.00;99.90;;;;;;5068420;28;20043;-77
2023/08/02 00:31:23;;;;;;;8.02;2.00;;;16.00;99.90;;;;;;5067019;28;20288;-76
2023/08/02 00:33:48;;;;;;;7.47;1.85;;;16.00;99.90;;;;;;5052652;28;20043;-76
2023/08/02 00:36:14;;;;;;;7.78;1.92;;;15.90;99.90;;;;;;5085987;28;20028;-76
2023/08/02 00:38:40;;;;;;;4.40;1.70;;;15.90;99.90;;;;;;5085010;28;20020;-76
2023/08/02 00:41:06;;;;;;;5.80;2.00;;;15.90;99.90;;;;;;5085965;28;20048;-76
2023/08/02 00:43:40;;;;;;;6.72;2.00;;;15.90;99.90;;;;;;5085708;28;20265;-76
2023/08/02 00:46:07;;;;;;;6.00;1.95;;;15.90;99.90;;;;;;5102707;28;20020;-76
2023/08/02 00:48:34;;;;;;;9.40;2.00;;;15.90;99.90;;;;;;5083636;28;20051;-76
2023/08/02 00:51:00;;;;;;;8.00;2.05;;;15.90;99.90;;;;;;5119468;28;20317;-76
2023/08/02 00:53:26;;;;;;;9.55;2.40;;;15.90;99.90;;;;;;5068747;28;20064;-76
2023/08/02 00:55:52;;;;;;;7.88;2.22;;;15.90;99.90;;;;;;5085185;28;20027;-76
2023/08/02 00:58:18;;;;;;;8.27;1.95;;;15.90;99.90;;;;;;5085183;28;20089;-76
2023/08/02 01:00:44;;;;;;;7.43;2.20;;;15.90;99.90;;;;;;5067906;28;20258;-76
2023/08/02 01:03:09;;;;;;;8.15;2.38;;;15.90;99.90;;;;;;5068601;28;20023;-76
2023/08/02 01:05:43;;;;;;;6.50;2.03;;;15.90;99.90;;;;;;5048764;28;20294;-76
2023/08/02 01:08:15;;;;;;;7.40;2.20;;;16.00;99.90;;;;;;5061140;28;20173;-76
2023/08/02 01:11:04;;;;;;;9.20;2.33;;;16.00;99.90;;;;;;5091684;28;20058;-76
2023/08/02 01:13:31;;;;;;;8.68;2.75;;;15.90;99.90;;;;;;5080514;28;20031;-76
2023/08/02 01:15:58;;;;;;;8.27;2.63;;;15.90;99.90;;;;;;5119137;28;20031;-76
2023/08/02 01:18:24;;;;;;;9.05;2.40;;;15.90;99.90;;;;;;5084957;28;20020;-76
2023/08/02 01:20:50;;;;;;;8.32;2.38;;;16.00;99.90;;;;;;5109223;28;20024;-76
2023/08/02 01:23:16;;;;;;;10.13;2.95;;;15.90;99.90;;;;;;5084768;28;20055;-76
2023/08/02 01:25:44;;;;;;;10.30;2.80;;;15.90;99.90;;;;;;5084719;28;20099;-76
2023/08/02 01:28:20;;;;;;;10.30;3.15;;;15.90;99.90;;;;;;5084625;28;20042;-76
2023/08/02 01:30:47;;;;;;;9.32;2.88;;;15.90;99.90;;;;;;5082631;28;20035;-76
2023/08/02 01:33:14;;;;;;;10.05;3.00;;;15.90;99.90;;;;;;5084761;28;20036;-76
2023/08/02 01:35:40;;;;;;;7.95;2.53;;;15.90;99.90;;;;;;5084622;28;20048;-76
2023/08/02 01:38:06;;;;;;;8.48;2.80;;;16.00;99.90;;;;;;5084584;28;20024;-76
2023/08/02 01:40:32;;;;;;;12.55;3.60;;;15.90;99.90;;;;;;5068123;28;20012;-76
2023/08/02 01:42:57;;;;;;;14.25;3.25;;;16.00;99.90;;;;;;5090163;28;20287;-76
2023/08/02 01:45:23;;;;;;;9.32;3.40;;;16.00;99.90;;;;;;5067789;28;20070;-76
2023/08/02 01:47:51;;;;;;;10.43;3.20;;;16.00;99.90;;;;;;5101772;28;20099;-76
2023/08/02 01:50:16;;;;;;;8.82;2.97;;;16.00;99.90;;;;;;5068097;28;20035;-76
2023/08/02 01:52:42;;;;;;;9.32;3.10;;;15.90;99.90;;;;;;5066391;28;20024;-76
2023/08/02 01:55:08;;;;;;;9.52;3.25;;;16.00;99.90;;;;;;5075830;28;20119;-76
2023/08/02 01:57:34;;;;;;;11.95;3.28;;;15.90;99.90;;;;;;5118204;28;20087;-76
2023/08/02 02:00:00;;;;;;;10.35;3.20;;;16.00;99.90;;;;;;5051018;28;20284;-76
2023/08/02 02:02:25;;;;;;;8.63;3.40;;;15.90;99.90;;;;;;5082772;28;20058;-76
2023/08/02 02:04:51;;;;;;;10.25;3.35;;;15.90;99.90;;;;;;5084499;28;20091;-76
2023/08/02 02:07:17;;;;;;;12.60;3.67;;;16.00;99.90;;;;;;5082754;28;20019;-76
2023/08/02 02:09:43;;;;;;;10.15;3.08;;;15.90;99.90;;;;;;5118270;28;20269;-76
2023/08/02 02:12:08;;;;;;;9.25;3.40;;;16.00;99.90;;;;;;5084356;28;20087;-76
2023/08/02 02:14:34;;;;;;;11.50;3.63;;;16.00;99.90;;;;;;5075427;28;20063;-76
2023/08/02 02:17:01;;;;;;;9.05;3.20;;;15.90;99.90;;;;;;5084324;28;20154;-76
2023/08/02 02:19:27;;;;;;;10.52;3.60;;;15.90;99.90;;;;;;5067563;28;20020;-76
2023/08/02 02:21:53;;;;;;;10.77;3.33;;;15.90;99.90;;;;;;5084035;28;20031;-76
2023/08/02 02:24:18;;;;;;;9.57;3.50;;;15.90;99.90;;;;;;5082140;28;20048;-76
2023/08/02 02:26:44;;;;;;;10.85;3.33;;;15.90;99.90;;;;;;5067443;28;20293;-76
2023/08/02 02:29:10;;;;;;;11.50;3.38;;;15.90;99.90;;;;;;5084137;28;20032;-76
2023/08/02 02:31:35;;;;;;;9.95;3.58;;;15.90;99.90;;;;;;5050932;28;20019;-76
2023/08/02 02:34:01;;;;;;;11.57;3.67;;;15.90;99.90;;;;;;5086289;28;20234;-76
2023/08/02 02:36:27;;;;;;;10.13;3.40;;;15.90;99.90;;;;;;5088169;28;20076;-76
2023/08/02 02:38:53;;;;;;;9.75;3.10;;;15.90;99.90;;;;;;5071420;28;20079;-76
2023/08/02 02:41:18;;;;;;;10.65;3.45;;;15.90;99.90;;;;;;5088057;28;20024;-76
2023/08/02 02:43:44;;;;;;;10.10;3.53;;;15.90;99.90;;;;;;5088056;28;20029;-76
2023/08/02 02:46:10;;;;;;;9.77;3.17;;;15.90;99.90;;;;;;5068190;28;20201;-76
2023/08/02 02:48:35;;;;;;;11.32;3.30;;;15.80;99.90;;;;;;5071385;28;20028;-76
2023/08/02 02:51:01;;;;;;;10.32;3.15;;;15.80;99.90;;;;;;5071402;28;20042;-76
2023/08/02 02:53:27;;;;;;;10.63;3.60;;;15.80;99.90;;;;;;5054343;28;20044;-76
2023/08/02 02:55:52;;;;;;;11.40;3.55;;;15.90;99.90;;;;;;5070270;28;20023;-76
2023/08/02 02:58:18;;;;;;;8.75;3.28;;;15.80;99.90;;;;;;5087710;28;20047;-76
2023/08/02 03:00:44;;;;;;;10.90;3.55;;;15.90;99.90;;;;;;5071133;28;20020;-76
2023/08/02 03:03:09;;;;;;;11.32;3.50;;;15.80;99.90;;;;;;5054906;28;20095;-76
2023/08/02 03:05:39;;;;;;;11.88;3.30;;;15.90;99.90;;;;;;5069293;28;20027;-76
2023/08/02 03:08:04;;;;;;;10.93;3.40;;;15.80;99.90;;;;;;5087704;28;20031;-76
2023/08/02 03:10:30;;;;;;;12.80;3.85;;;15.90;99.90;;;;;;5070831;28;20167;-76
2023/08/02 03:12:56;;;;;;;11.38;3.65;;;15.90;99.90;;;;;;5054165;28;20031;-76
2023/08/02 03:15:21;;;;;;;11.70;3.67;;;15.90;99.90;;;;;;5104559;28;20090;-76
2023/08/02 03:17:47;;;;;;;11.43;3.30;;;15.80;99.90;;;;;;5066245;28;20180;-76
2023/08/02 03:20:13;;;;;;;10.60;3.30;;;15.90;99.90;;;;;;5104541;28;20218;-76
2023/08/02 03:22:38;;;;;;;15.30;3.58;;;15.80;99.90;;;;;;5070476;28;20069;-76
2023/08/02 03:25:04;;;;;;;11.65;3.58;;;15.80;99.90;;;;;;5067306;28;20037;-76
2023/08/02 03:27:30;;;;;;;12.85;3.75;;;15.90;99.90;;;;;;5062596;28;20074;-76
2023/08/02 03:29:56;;;;;;;12.20;3.17;;;15.80;99.90;;;;;;5037439;28;20192;-76
2023/08/02 03:32:22;;;;;;;11.10;3.40;;;15.90;99.90;;;;;;5086983;28;20336;-76
2023/08/02 03:34:48;;;;;;;15.05;3.58;;;15.80;99.90;;;;;;5054024;28;20029;-76
2023/08/02 03:37:13;;;;;;;11.38;3.78;;;15.90;99.90;;;;;;5100677;28;20086;-76
2023/08/02 03:39:39;;;;;;;12.90;3.40;;;15.80;99.90;;;;;;5087168;28;20079;-76
2023/08/02 03:42:05;;;;;;;12.50;3.92;;;15.80;99.90;;;;;;5070580;28;20148;-76
2023/08/02 03:44:31;;;;;;;11.75;3.80;;;15.80;99.90;;;;;;5114736;28;20020;-76
2023/08/02 03:46:56;;;;;;;12.75;3.70;;;15.80;99.90;;;;;;5121056;28;20027;-76
2023/08/02 03:49:22;;;;;;;11.73;3.63;;;15.80;99.90;;;;;;5086169;28;20126;-76
2023/08/02 03:51:48;;;;;;;17.40;4.07;;;15.80;99.90;;;;;;5120919;28;20024;-76
2023/08/02 03:54:14;;;;;;;12.20;3.85;;;15.80;99.90;;;;;;5117697;28;20073;-76
2023/08/02 03:56:40;;;;;;;20.40;4.18;;;15.80;99.90;;;;;;5103982;28;20196;-76
2023/08/02 03:59:06;;;;;;;14.80;4.18;;;14.70;99.90;;;;;;5068513;28;20079;-76
2023/08/02 04:01:31;;;;;;;11.88;4.40;;;15.80;99.90;;;;;;5051795;28;20130;-77
2023/08/02 04:03:57;;;;;;;14.43;4.20;;;15.70;99.90;;;;;;5065340;28;20079;-76
2023/08/02 04:06:23;;;;;;;14.20;4.32;;;15.70;99.90;;;;;;5070090;28;20023;-77
2023/08/02 04:08:49;;;;;;;11.90;3.80;;;15.70;99.90;;;;;;5084815;28;20035;-76
2023/08/02 04:11:14;;;;;;;16.50;4.78;;;15.70;99.90;;;;;;5086548;28;20027;-76
2023/08/02 04:13:40;;;;;;;12.25;4.38;;;15.70;99.90;;;;;;5086341;28;20050;-76
2023/08/02 04:16:06;;;;;;;12.68;4.05;;;15.70;99.90;;;;;;5069804;28;20051;-76
2023/08/02 04:18:31;;;;;;;12.05;4.47;;;15.70;99.90;;;;;;5108240;28;20278;-76
2023/08/02 04:20:59;;;;;;;14.35;4.82;;;15.70;99.90;;;;;;5084467;28;20020;-77
2023/08/02 04:23:26;;;;;;;13.95;4.68;;;15.70;99.90;;;;;;5103325;28;20220;-76
2023/08/02 04:25:52;;;;;;;14.95;4.47;;;15.70;99.90;;;;;;5069722;28;20062;-76
2023/08/02 04:28:18;;;;;;;14.82;5.20;;;15.70;99.90;;;;;;5095286;28;20032;-77
2023/08/02 04:30:49;;;;;;;16.20;5.07;;;15.70;99.90;;;;;;5067737;28;20028;-77
2023/08/02 04:33:15;;;;;;;17.70;5.13;;;15.70;99.90;;;;;;5120208;28;20024;-77
2023/08/02 04:35:41;;;;;;;13.77;5.15;;;15.70;99.90;;;;;;5075880;28;20062;-77
2023/08/02 04:38:06;;;;;;;16.40;5.07;;;15.70;99.90;;;;;;5068743;28;20158;-77
2023/08/02 04:40:37;;;;;;;15.25;4.78;;;15.70;99.90;;;;;;5065278;28;20024;-77
2023/08/02 04:43:03;;;;;;;14.38;5.15;;;15.70;99.90;;;;;;5068041;28;20024;-76
2023/08/02 04:45:29;;;;;;;21.60;5.38;;;15.70;99.90;;;;;;5067893;28;20258;-76
2023/08/02 04:47:55;;;;;;;14.23;5.18;;;15.70;99.90;;;;;;5052661;28;20031;-76
2023/08/02 04:50:20;;;;;;;16.50;5.93;;;15.70;99.90;;;;;;5067068;28;20032;-77
2023/08/02 04:52:46;;;;;;;18.65;6.13;;;15.70;99.90;;;;;;5068684;28;20133;-76
2023/08/02 04:55:12;;;;;;;17.67;5.47;;;15.70;99.90;;;;;;5056895;28;20258;-76
2023/08/02 04:57:37;;;;;;;18.92;5.28;;;15.70;99.90;;;;;;5065915;28;20042;-77
2023/08/02 05:00:05;;;;;;;16.23;5.30;;;15.70;99.90;;;;;;5080608;28;20324;-77
2023/08/02 05:02:34;;;;;;;18.60;5.93;;;15.70;99.90;;;;;;5067833;28;20016;-77
2023/08/02 05:05:02;;;;;;;17.55;5.63;;;15.70;99.90;;;;;;5085424;28;20096;-77
2023/08/02 05:07:30;;;;;;;19.10;5.55;;;15.70;99.90;;;;;;5063931;28;20031;-76
2023/08/02 05:09:57;;;;;;;12.75;5.90;;;15.70;99.90;;;;;;5061316;28;20028;-77
2023/08/02 05:12:23;;;;;;;16.15;5.63;;;15.70;99.90;;;;;;5096406;28;20062;-77
2023/08/02 05:14:49;;;;;;;13.05;4.93;;;15.70;99.90;;;;;;5067799;28;20020;-77
2023/08/02 05:17:14;;;;;;;14.95;5.47;;;15.70;99.90;;;;;;5082871;28;20284;-77
2023/08/02 05:19:40;;;;;;;14.05;5.10;;;15.60;99.90;;;;;;5048780;28;20091;-77
2023/08/02 05:22:06;;;;;;;13.43;5.40;;;15.70;99.90;;;;;;5043728;28;20173;-77
2023/08/02 05:24:32;;;;;;;16.55;5.30;;;15.60;99.90;;;;;;5068109;28;20119;-76
2023/08/02 05:26:57;;;;;;;16.00;5.68;;;15.70;99.90;;;;;;5073554;28;20055;-76
2023/08/02 05:29:23;;;;;;;15.15;5.68;;;15.60;99.90;;;;;;5081141;28;20170;-76
2023/08/02 05:31:49;;;;;;;15.20;5.22;;;15.70;99.90;;;;;;5058832;28;20383;-76
2023/08/02 05:34:15;;;;;;;14.38;5.10;;;15.60;99.90;;;;;;5086913;28;20029;-77
2023/08/02 05:36:40;;;;;;;15.02;5.45;;;15.70;99.90;;;;;;5078145;28;20012;-76
2023/08/02 05:39:06;;;;;;;15.60;5.63;;;15.70;99.90;;;;;;5046981;28;20036;-76
2023/08/02 05:41:32;;;;;;;14.45;5.28;;;15.70;99.90;;;;;;5065307;28;20095;-76
2023/08/02 05:43:57;;;;;;;15.20;5.47;;;15.70;99.90;;;;;;5065256;28;20094;-76
2023/08/02 05:46:23;;;;;;;15.70;5.40;;;15.70;99.90;;;;;;5099055;28;20229;-76
2023/08/02 05:48:49;;;;;;;14.07;5.32;;;15.70;99.90;;;;;;5063435;28;20030;-76
2023/08/02 05:51:14;;;;;;;15.60;5.45;;;15.80;99.90;;;;;;5059224;28;20035;-76
2023/08/02 05:53:40;;;;;;;17.35;5.93;;;15.80;99.90;;;;;;5064778;28;20062;-76
2023/08/02 05:56:06;;;;;;;14.68;5.72;;;15.80;99.90;;;;;;5074654;28;20020;-76
2023/08/02 05:58:31;;;;;;;12.95;5.20;;;15.80;99.90;;;;;;5064535;28;20099;-76
2023/08/02 06:00:57;;;;;;;17.38;6.03;;;15.90;99.90;;;;;;5062527;28;20248;-76
2023/08/02 06:03:23;;;;;;;16.10;5.60;;;16.00;99.90;;;;;;5081332;28;20021;-76
2023/08/02 06:05:49;;;;;;;14.40;5.65;;;16.00;99.90;;;;;;5048261;28;20028;-76
2023/08/02 06:08:14;;;;;;;16.00;5.40;;;16.10;99.90;;;;;;5081302;28;20036;-76
2023/08/02 06:10:40;;;;;;;13.02;5.47;;;16.10;99.90;;;;;;5063554;28;20020;-76
2023/08/02 06:13:06;;;;;;;14.68;5.13;;;16.10;99.90;;;;;;5064596;28;20070;-76
2023/08/02 06:15:32;;;;;;;13.70;5.38;;;16.10;99.90;;;;;;5074953;28;20028;-77
2023/08/02 06:17:57;;;;;;;13.70;5.82;;;16.20;99.90;;;;;;5060177;28;20044;-77
2023/08/02 06:20:23;;;;;;;13.60;5.65;;;16.20;99.90;;;;;;5081089;28;20020;-77
2023/08/02 06:22:49;;;;;;;17.17;6.35;;;16.20;99.90;;;;;;5065760;28;20175;-77
2023/08/02 06:25:15;;;;;;;13.18;5.82;;;16.30;99.90;;;;;;5083613;28;20032;-79
2023/08/02 06:27:41;;;;;;;15.10;6.65;;;16.30;99.90;;;;;;5084119;28;20031;-77
2023/08/02 06:30:07;;;;;;;13.18;5.70;;;16.30;99.90;;;;;;5084266;28;20242;-77
2023/08/02 06:32:32;;;;;;;15.98;5.93;;;16.30;99.90;;;;;;5101008;28;20024;-77
2023/08/02 06:34:58;;;;;;;15.40;5.82;;;16.40;99.90;;;;;;5065631;28;20024;-77
2023/08/02 06:37:24;;;;;;;15.65;6.20;;;16.40;99.90;;;;;;5083959;28;20066;-77
2023/08/02 06:39:49;;;;;;;16.35;6.20;;;16.40;99.90;;;;;;5101139;28;20161;-77
2023/08/02 06:42:15;;;;;;;14.60;6.50;;;16.50;99.90;;;;;;5101169;28;20047;-77
2023/08/02 06:44:41;;;;;;;14.80;6.35;;;16.40;99.90;;;;;;5083828;28;20339;-77
2023/08/02 06:47:06;;;;;;;13.68;6.38;;;16.50;99.90;;;;;;5065080;28;20055;-77
2023/08/02 06:49:35;;;;;;;15.07;6.80;;;16.50;99.90;;;;;;5084155;28;20052;-77
2023/08/02 06:52:01;;;;;;;14.32;6.22;;;16.60;99.90;;;;;;5083938;28;20027;-77
2023/08/02 06:54:27;;;;;;;16.85;7.07;;;16.70;99.90;;;;;;5114354;28;20016;-77
2023/08/02 06:56:53;;;;;;;13.32;6.30;;;16.70;99.90;;;;;;5066866;28;20043;-77
2023/08/02 06:59:19;;;;;;;15.15;6.90;;;16.70;99.90;;;;;;5048953;28;20024;-77
2023/08/02 07:01:46;;;;;;;13.77;6.80;;;16.70;99.90;;;;;;5101092;28;20062;-77
2023/08/02 07:04:11;;;;;;;14.10;6.82;;;16.80;99.90;;;;;;5067165;28;20063;-77
2023/08/02 07:06:37;;;;;;;18.25;6.90;;;16.70;99.90;;;;;;5100253;28;20027;-77
2023/08/02 07:09:03;;;;;;;13.80;6.38;;;16.70;99.90;;;;;;5083156;28;20047;-78
2023/08/02 07:11:28;;;;;;;13.57;6.68;;;16.70;99.90;;;;;;5067484;28;20032;-77
2023/08/02 07:13:54;;;;;;;14.23;7.50;;;16.70;99.90;;;;;;5067120;28;20174;-77
2023/08/02 07:16:20;;;;;;;14.65;6.38;;;16.70;99.90;;;;;;5083547;28;20222;-77
2023/08/02 07:18:46;;;;;;;14.43;6.40;;;16.80;99.90;;;;;;5061959;28;20030;-77
2023/08/02 07:21:12;;;;;;;16.80;7.25;;;16.80;99.90;;;;;;5069355;28;20079;-77
2023/08/02 07:23:38;;;;;;;17.27;6.80;;;16.90;99.90;;;;;;5087051;28;20086;-77
2023/08/02 07:26:05;;;;;;;13.20;5.75;;;16.90;99.90;;;;;;5053957;28;20098;-77
2023/08/02 07:28:31;;;;;;;15.18;5.68;;;16.90;99.90;;;;;;5069853;28;20028;-77
2023/08/02 07:31:16;;;;;;;12.15;5.07;;;16.90;99.90;;;;;;5087517;28;20071;-77
2023/08/02 07:33:42;;;;;;;11.93;4.75;;;16.90;99.90;;;;;;5070601;28;20087;-77
2023/08/02 07:36:19;;;;;;;12.52;4.60;;;16.90;99.90;;;;;;5070547;28;20020;-77
2023/08/02 07:38:45;;;;;;;17.00;5.43;;;16.80;99.90;;;;;;5085455;28;20027;-77
2023/08/02 07:41:11;;;;;;;12.18;4.65;;;16.80;99.90;;;;;;5057125;28;20024;-77
2023/08/02 07:43:36;;;;;;;12.57;4.90;;;16.80;99.90;;;;;;5113668;28;20028;-77
2023/08/02 07:46:02;;;;;;;13.57;5.20;;;16.80;99.90;;;;;;5093158;28;20028;-77
2023/08/02 07:48:28;;;;;;;15.80;4.93;;;16.80;99.90;;;;;;5085252;28;20028;-78
2023/08/02 07:50:54;;;;;;;15.43;5.00;;;16.70;99.90;;;;;;5114878;28;20020;-77
2023/08/02 07:53:19;;;;;;;13.15;4.97;;;16.70;99.90;;;;;;5087012;28;20099;-77
2023/08/02 07:55:45;;;;;;;13.88;5.32;;;16.70;99.90;;;;;;5068903;28;20134;-77
2023/08/02 07:58:11;;;;;;;14.40;4.97;;;16.70;99.90;;;;;;5069906;28;20020;-78
2023/08/02 08:00:37;;;;;;;13.85;5.13;;;16.70;99.90;;;;;;5069601;28;20043;-78
2023/08/02 08:03:03;;;;;;;12.88;4.90;;;16.70;99.90;;;;;;5086788;28;20020;-78
2023/08/02 08:05:32;;;;;;;15.32;5.05;;;16.70;99.90;;;;;;5108657;28;20085;-78
2023/08/02 08:07:57;;;;;;;11.77;4.30;;;16.70;99.90;;;;;;5086347;28;20172;-78
2023/08/02 08:10:23;;;;;;;13.82;4.68;;;16.70;99.90;;;;;;5032522;28;20023;-78
2023/08/02 08:12:49;;;;;;;12.55;4.25;;;16.70;99.90;;;;;;5086240;28;20285;-78
2023/08/02 08:15:15;;;;;;;11.15;3.90;;;16.70;99.90;;;;;;5084223;28;20043;-78
2023/08/02 08:17:40;;;;;;;14.35;4.35;;;16.70;99.90;;;;;;5052101;28;20012;-78
2023/08/02 08:20:06;;;;;;;10.73;4.00;;;16.70;99.90;;;;;;5084962;28;20113;-78
2023/08/02 08:22:32;;;;;;;10.93;4.13;;;16.60;99.90;;;;;;5069596;28;20103;-78
2023/08/02 08:24:58;;;;;;;12.35;3.90;;;16.60;99.90;;;;;;5069293;28;20040;-78
2023/08/02 08:27:24;;;;;;;9.32;3.55;;;16.60;99.90;;;;;;5069160;28;20170;-78
2023/08/02 08:29:50;;;;;;;12.20;4.10;;;16.60;99.90;;;;;;5068511;28;20039;-79
2023/08/02 08:32:16;;;;;;;13.73;4.20;;;16.60;99.90;;;;;;5086203;28;20067;-78
2023/08/02 08:34:42;;;;;;;12.55;3.90;;;16.50;99.90;;;;;;5090724;28;20289;-79
2023/08/02 08:37:08;;;;;;;10.27;3.88;;;16.50;99.90;;;;;;5069124;28;20024;-79
2023/08/02 08:39:38;;;;;;;10.02;3.95;;;16.40;99.90;;;;;;5052566;28;20035;-79
2023/08/02 08:42:08;;;;;;;11.07;3.90;;;16.40;99.90;;;;;;5051964;28;20024;-79
2023/08/02 08:44:37;;;;;;;15.80;4.70;;;16.40;99.90;;;;;;5086053;28;20028;-79
2023/08/02 08:47:06;;;;;;;12.18;4.25;;;16.30;99.90;;;;;;5119499;28;20032;-79
2023/08/02 08:49:32;;;;;;;10.88;3.80;;;16.20;99.90;;;;;;5085768;28;20028;-78
2023/08/02 08:52:04;;;;;;;12.30;4.18;;;16.20;99.90;;;;;;5094537;28;20096;-78
2023/08/02 08:54:32;;;;;;;10.60;3.80;;;16.10;99.90;;;;;;5085264;28;20059;-79
2023/08/02 08:56:59;;;;;;;11.02;4.18;;;16.10;99.90;;;;;;5085794;28;20181;-78
2023/08/02 08:59:25;;;;;;;11.98;4.22;;;16.10;99.90;;;;;;5085619;28;20039;-78
2023/08/02 09:01:52;;;;;;;13.18;4.35;;;16.00;99.90;;;;;;5068084;28;20031;-77
2023/08/02 09:04:18;;;;;;;11.52;4.15;;;16.00;99.90;;;;;;5052093;28;20067;-78
2023/08/02 09:06:44;;;;;;;11.05;4.10;;;16.00;99.90;;;;;;5086387;28;20024;-78
2023/08/02 09:09:14;;;;;;;14.35;3.90;;;15.90;99.90;;;;;;5068612;28;20020;-77
2023/08/02 09:11:41;;;;;;;12.80;3.95;;;15.90;99.90;;;;;;5117936;28;20246;-78
2023/08/02 09:14:12;;;;;;;10.48;4.00;;;15.80;99.90;;;;;;5084468;28;20100;-78
2023/08/02 09:16:59;;;;;;;11.07;4.05;;;15.80;99.90;;;;;;5083951;28;20039;-78
2023/08/02 09:19:27;;;;;;;10.57;3.72;;;15.80;99.90;;;;;;5119312;28;20024;-78
2023/08/02 09:22:09;;;;;;;13.93;4.03;;;15.80;99.90;;;;;;5119236;28;20031;-78
2023/08/02 09:24:36;;;;;;;15.07;4.00;;;15.80;99.90;;;;;;5105772;28;20079;-78
2023/08/02 09:27:10;;;;;;;10.88;3.92;;;15.80;99.90;;;;;;5064861;28;20024;-78
2023/08/02 09:30:03;;;;;;;9.57;3.38;;;15.90;99.90;;;;;;5068517;28;20090;-78
2023/08/02 09:32:28;;;;;;;10.07;3.77;;;15.90;99.90;;;;;;5080182;28;20036;-79
2023/08/02 09:34:57;;;;;;;12.23;4.20;;;15.90;99.90;;;;;;5056625;28;20027;-79
2023/08/02 09:37:34;;;;;;;11.95;4.82;;;16.00;99.90;;;;;;5067033;28;20020;-79
2023/08/02 09:40:01;;;;;;;11.82;4.32;;;16.10;99.90;;;;;;5114755;28;20019;-79
2023/08/02 09:42:28;;;;;;;10.55;4.15;;;16.00;99.90;;;;;;5068091;28;20039;-79
2023/08/02 09:45:00;;;;;;;11.80;4.30;;;16.10;99.90;;;;;;5117322;28;20031;-79
2023/08/02 09:47:27;;;;;;;12.93;4.25;;;16.00;99.90;;;;;;5112084;28;20024;-79
2023/08/02 09:50:07;;;;;;;10.57;4.03;;;16.10;99.90;;;;;;5118470;28;20150;-79
2023/08/02 09:52:34;;;;;;;10.65;4.32;;;16.10;99.90;;;;;;5067853;28;20023;-79
2023/08/02 09:55:00;;;;;;;11.63;3.88;;;16.20;99.90;;;;;;5067646;28;20031;-79
2023/08/02 09:57:28;;;;;;;14.52;4.90;;;16.20;99.90;;;;;;5082717;28;20059;-79
2023/08/02 09:59:57;;;;;;;13.38;5.05;;;16.20;99.90;;;;;;5067660;28;20026;-79
2023/08/02 10:02:25;;;;;;;10.68;4.60;;;16.30;99.90;;;;;;5085018;28;20063;-80
2023/08/02 10:04:59;;;;;;;11.02;4.55;;;16.30;99.90;;;;;;5084709;28;20024;-80
2023/08/02 10:07:47;;;;;;;11.10;4.53;;;16.40;99.90;;;;;;5082723;28;20024;-79
2023/08/02 10:10:19;;;;;;;11.80;4.97;;;16.40;99.90;;;;;;5084337;28;20020;-79
2023/08/02 10:12:52;;;;;;;13.00;5.03;;;16.50;99.90;;;;;;5101164;28;20083;-79
2023/08/02 10:15:17;;;;;;;;;;;16.40;99.90;;;;;;5110405;28;20092;-79
2023/08/02 10:17:45;;;;;;;12.45;5.35;;;16.30;99.90;;;;;;5054219;28;20053;-79
2023/08/02 10:20:13;;;;;;;14.25;5.97;;;16.30;99.90;;;;;;5074744;28;20098;-79
2023/08/02 10:22:40;;;;;;;11.30;5.03;;;16.30;99.90;;;;;;5062038;28;20116;-78
2023/08/02 10:25:07;;;;;;;13.00;5.45;;;16.30;99.90;;;;;;5084092;28;20052;-78
2023/08/02 10:27:34;;;;;;;12.80;5.45;;;16.20;99.90;;;;;;5067880;28;20067;-78
2023/08/02 10:30:01;;;;;;;12.05;4.50;;;16.20;99.90;;;;;;5077470;28;20059;-79
2023/08/02 10:32:27;;;;;;;11.52;4.90;;;16.20;99.90;;;;;;5090381;28;20025;-78
2023/08/02 10:34:52;;;;;;;11.73;4.70;;;16.20;99.90;;;;;;5067177;28;20046;-79
2023/08/02 10:37:20;;;;;;;10.30;4.40;;;16.30;99.90;;;;;;5083078;28;20307;-78
2023/08/02 10:39:45;;;;;;;12.48;4.65;;;16.30;99.90;;;;;;5064949;28;20025;-79
2023/08/02 10:42:49;;;;;;;12.98;4.65;;;16.30;99.90;;;;;;5063911;28;20039;-78
2023/08/02 10:45:15;;;;;;;11.38;4.50;;;16.40;99.90;;;;;;5058452;28;20028;-79
2023/08/02 10:47:41;;;;;;;10.75;4.50;;;16.40;99.90;;;;;;5064047;28;20319;-79
2023/08/02 10:50:07;;;;;;;10.45;4.72;;;16.40;99.90;;;;;;5084183;28;20154;-79
2023/08/02 10:52:35;;;;;;;10.00;4.03;;;16.60;99.90;;;;;;5066228;28;20028;-78
2023/08/02 10:55:06;;;;;;;11.30;3.90;;;16.60;99.90;;;;;;5086106;28;20165;-78
2023/08/02 10:57:32;;;;;;;9.82;3.88;;;16.60;99.90;;;;;;5121850;28;20135;-78
2023/08/02 10:59:58;;;;;;;8.38;3.70;;;16.60;99.90;;;;;;5122034;28;20016;-78
2023/08/02 11:02:26;;;;;;;8.85;3.50;;;16.70;99.90;;;;;;5115469;28;20210;-78
2023/08/02 11:04:53;;;;;;;8.60;3.35;;;16.70;99.90;;;;;;5116389;28;20261;-78
2023/08/02 11:07:22;;;;;;;9.18;3.17;;;16.70;99.90;;;;;;5097441;28;20050;-78
2023/08/02 11:09:52;;;;;;;8.20;3.00;;;16.70;99.90;;;;;;5117973;28;20047;-79
2023/08/02 11:12:19;;;;;;;8.35;2.97;;;16.80;99.90;;;;;;5054242;28;20100;-79
2023/08/02 11:14:47;;;;;;;8.40;3.00;;;16.80;99.90;;;;;;5087182;28;20227;-79
2023/08/02 11:17:17;;;;;;;8.43;2.70;;;16.90;99.90;;;;;;5074462;28;20091;-79
2023/08/02 11:19:48;;;;;;;7.65;2.90;;;16.90;99.90;;;;;;5079382;28;20092;-78
2023/08/02 11:22:15;;;;;;;6.55;2.50;;;16.90;99.90;;;;;;5041507;28;20024;-80
2023/08/02 11:24:51;;;;;;;6.88;2.40;;;16.90;99.90;;;;;;5053611;28;20298;-79
2023/08/02 11:27:22;;;;;;;7.10;2.30;;;16.90;99.90;;;;;;5087478;28;20036;-79
2023/08/02 11:30:02;;;;;;;7.15;1.95;;;16.90;99.90;;;;;;5121651;28;20028;-79
2023/08/02 11:32:30;;;;;;;6.90;2.20;;;16.90;99.90;;;;;;5069995;28;20027;-80
2023/08/02 11:34:56;;;;;;;5.63;2.10;;;16.90;99.90;;;;;;5070838;28;20032;-80
2023/08/02 11:37:22;;;;;;;5.88;2.13;;;16.90;99.90;;;;;;5087421;28;20055;-79
2023/08/02 11:39:53;;;;;;;4.53;1.63;;;16.90;99.90;;;;;;5070932;28;20032;-78
2023/08/02 11:42:19;;;;;;;4.85;1.90;;;17.00;99.90;;;;;;5113801;28;20027;-78
2023/08/02 11:44:45;;;;;;;5.80;1.90;;;16.90;99.90;;;;;;5086061;28;20282;-79
2023/08/02 11:47:11;;;;;;;3.92;1.70;;;17.00;99.90;;;;;;5087199;28;20058;-78
2023/08/02 11:49:56;;;;;;;4.53;1.80;;;17.00;99.90;;;;;;5083971;28;20063;-78
2023/08/02 11:52:26;;;;;;;4.78;1.80;;;17.00;99.90;;;;;;5052507;28;20040;-78
2023/08/02 11:54:53;;;;;;;5.18;2.03;;;17.00;99.90;;;;;;5061917;28;20998;-79
2023/08/02 11:57:21;;;;;;;5.53;1.92;;;17.00;99.90;;;;;;5039023;28;20028;-78
2023/08/02 11:59:52;;;;;;;4.55;1.60;;;17.00;99.90;;;;;;5075476;28;20060;-78
2023/08/02 12:02:28;;;;;;;4.47;1.67;;;17.10;99.90;;;;;;5067294;28;20053;-78
2023/08/02 12:04:54;;;;;;;4.45;1.70;;;17.10;99.90;;;;;;5077349;28;20132;-78
2023/08/02 12:07:27;;;;;;;6.30;1.90;;;17.20;99.90;;;;;;5060059;28;20075;-78
2023/08/02 12:09:54;;;;;;;4.60;1.73;;;17.20;99.90;;;;;;5079864;28;20289;-78
2023/08/02 12:12:20;;;;;;;4.75;1.70;;;17.30;99.90;;;;;;5055272;28;20040;-78
2023/08/02 12:14:46;;;;;;;4.85;1.88;;;17.40;99.90;;;;;;5061652;28;20042;-78
2023/08/02 12:17:22;;;;;;;4.55;1.90;;;17.90;99.90;;;;;;5080576;28;20036;-78
2023/08/02 12:19:48;;;;;;;5.13;1.80;;;17.90;99.90;;;;;;5079567;28;20027;-78
2023/08/02 12:22:15;;;;;;;4.70;1.77;;;18.00;99.90;;;;;;5062488;28;20545;-78
2023/08/02 12:24:41;;;;;;;4.15;1.70;;;18.00;99.90;;;;;;5079195;28;20044;-78
2023/08/02 12:27:15;;;;;;;4.05;1.70;;;18.10;99.90;;;;;;5060875;28;20078;-78
2023/08/02 12:29:42;;;;;;;5.15;1.70;;;17.90;99.90;;;;;;5077398;28;20036;-78
2023/08/02 12:32:09;;;;;;;5.03;1.88;;;18.00;99.90;;;;;;5074578;28;20103;-77
2023/08/02 12:34:36;;;;;;;4.70;2.00;;;18.00;99.90;;;;;;5040903;28;20046;-77
2023/08/02 12:37:03;;;;;;;5.70;2.05;;;18.10;99.90;;;;;;5059632;28;20312;-77
2023/08/02 12:39:28;;;;;;;5.90;2.10;;;18.20;99.90;;;;;;5043541;28;20085;-76
2023/08/02 12:41:54;;;;;;;5.20;2.00;;;18.30;99.90;;;;;;5079457;28;20028;-77